Time;durP1;ratioP1;P1;durP2;ratioP2;P2;SDS_P1;SDS_P2;PMS_P1;PMS_P2;Temp;Humidity;BMP_temperature;BMP_pressure;BME280_temperature;BME280_humidity;BME280_pressure;Samples;Min_cycle;Max_cycle;Signal;HPM_P1;HPM_P2
2021/05/03 00:02:20;;;;;;;4.18;2.95;;;5.10;99.90;;;;;;5067958;28;20181;-85
2021/05/03 00:04:47;;;;;;;4.32;2.92;;;5.10;99.90;;;;;;5087968;28;20052;-85
2021/05/03 00:07:13;;;;;;;7.60;3.08;;;5.20;99.90;;;;;;5094203;28;20089;-85
2021/05/03 00:09:41;;;;;;;7.50;3.90;;;5.10;99.90;;;;;;5087924;28;20055;-85
2021/05/03 00:12:07;;;;;;;5.45;3.42;;;5.10;99.90;;;;;;5068936;28;20078;-85
2021/05/03 00:14:33;;;;;;;6.60;3.58;;;5.10;99.90;;;;;;5092072;28;20087;-86
2021/05/03 00:17:00;;;;;;;4.40;3.08;;;5.10;99.90;;;;;;5105940;28;20100;-85
2021/05/03 00:19:26;;;;;;;5.93;3.60;;;5.10;99.90;;;;;;5093489;28;20059;-86
2021/05/03 00:21:53;;;;;;;5.70;3.40;;;5.10;99.90;;;;;;5070716;28;20052;-86
2021/05/03 00:24:21;;;;;;;4.45;3.30;;;5.10;99.90;;;;;;5090053;28;20495;-85
2021/05/03 00:26:48;;;;;;;7.43;4.07;;;5.10;99.90;;;;;;5090736;28;20059;-84
2021/05/03 00:29:14;;;;;;;5.20;3.33;;;5.10;99.90;;;;;;5090560;28;20104;-85
2021/05/03 00:31:41;;;;;;;6.78;3.88;;;5.10;99.90;;;;;;5075222;28;20051;-85
2021/05/03 00:34:07;;;;;;;6.72;3.47;;;5.10;99.90;;;;;;5098515;28;20048;-85
2021/05/03 00:36:33;;;;;;;7.68;3.75;;;5.10;99.90;;;;;;5091194;28;20107;-84
2021/05/03 00:38:59;;;;;;;11.05;4.15;;;5.10;99.90;;;;;;5089818;28;20105;-85
2021/05/03 00:41:26;;;;;;;5.15;3.60;;;5.10;99.90;;;;;;5092593;28;20056;-85
2021/05/03 00:43:52;;;;;;;5.68;3.47;;;5.10;99.90;;;;;;5090586;28;20079;-85
2021/05/03 00:46:20;;;;;;;6.47;3.58;;;5.10;99.90;;;;;;5089818;28;20135;-85
2021/05/03 00:48:48;;;;;;;6.22;4.15;;;5.10;99.90;;;;;;5088763;28;20048;-85
2021/05/03 00:51:14;;;;;;;7.22;4.38;;;5.10;99.90;;;;;;5088632;28;20078;-84
2021/05/03 00:53:41;;;;;;;7.57;3.72;;;5.10;99.90;;;;;;5093228;28;20062;-85
2021/05/03 00:56:08;;;;;;;10.68;3.83;;;5.10;99.90;;;;;;5089953;28;20044;-85
2021/05/03 00:58:35;;;;;;;6.90;3.83;;;5.10;99.90;;;;;;5091349;28;20098;-85
2021/05/03 01:01:03;;;;;;;6.00;3.83;;;5.10;99.90;;;;;;5089971;28;20058;-85
2021/05/03 01:03:30;;;;;;;5.88;4.13;;;5.10;99.90;;;;;;5092356;28;20048;-85
2021/05/03 01:05:56;;;;;;;7.00;4.25;;;5.10;99.90;;;;;;5103836;28;20117;-85
2021/05/03 01:08:22;;;;;;;5.85;4.22;;;5.10;99.90;;;;;;5089687;28;20477;-85
2021/05/03 01:10:49;;;;;;;8.77;4.38;;;5.20;99.90;;;;;;5089546;28;20483;-85
2021/05/03 01:13:16;;;;;;;7.20;4.13;;;5.20;99.90;;;;;;5083844;28;20140;-86
2021/05/03 01:15:42;;;;;;;6.93;4.43;;;5.20;99.90;;;;;;5088852;28;20048;-86
2021/05/03 01:18:08;;;;;;;5.85;3.58;;;5.20;99.90;;;;;;5086660;28;20122;-85
2021/05/03 01:20:37;;;;;;;8.15;5.05;;;5.20;99.90;;;;;;5088132;28;20119;-86
2021/05/03 01:23:05;;;;;;;5.90;3.88;;;5.30;99.90;;;;;;5087498;28;20886;-85
2021/05/03 01:25:35;;;;;;;7.88;4.63;;;5.30;99.90;;;;;;5088690;28;20048;-86
2021/05/03 01:28:02;;;;;;;8.40;4.72;;;5.30;99.90;;;;;;5082971;28;20071;-85
2021/05/03 01:30:40;;;;;;;8.07;4.68;;;5.30;99.90;;;;;;5088166;28;20048;-86
2021/05/03 01:33:09;;;;;;;7.28;4.50;;;5.30;99.90;;;;;;5096451;28;20040;-85
2021/05/03 01:35:36;;;;;;;6.53;4.30;;;5.30;99.90;;;;;;5097398;28;20053;-86
2021/05/03 01:38:05;;;;;;;8.88;4.85;;;5.40;99.90;;;;;;5090412;28;20048;-86
2021/05/03 01:40:32;;;;;;;8.65;4.95;;;5.40;99.90;;;;;;5087000;28;20067;-85
2021/05/03 01:43:23;;;;;;;10.50;5.07;;;5.40;99.90;;;;;;5084168;28;20047;-85
2021/05/03 01:45:52;;;;;;;7.53;5.10;;;5.50;99.90;;;;;;5085703;28;20043;-86
2021/05/03 01:48:21;;;;;;;10.85;5.35;;;5.50;99.90;;;;;;5086051;28;21879;-86
2021/05/03 01:50:48;;;;;;;7.75;4.95;;;5.50;99.90;;;;;;5086408;28;20133;-86
2021/05/03 01:53:16;;;;;;;10.02;5.85;;;5.40;99.90;;;;;;5092951;28;20100;-85
2021/05/03 01:55:45;;;;;;;8.18;5.70;;;5.40;99.90;;;;;;5111969;28;20052;-86
2021/05/03 01:58:12;;;;;;;9.27;5.68;;;5.40;99.90;;;;;;5092790;28;20128;-86
2021/05/03 02:00:40;;;;;;;8.80;5.53;;;5.40;99.90;;;;;;5093152;28;20579;-86
2021/05/03 02:03:15;;;;;;;10.18;5.80;;;5.40;99.90;;;;;;5091227;28;20049;-86
2021/05/03 02:05:42;;;;;;;9.48;5.75;;;5.50;99.90;;;;;;5080516;28;20139;-86
2021/05/03 02:08:09;;;;;;;11.73;6.45;;;5.50;99.90;;;;;;5086970;28;20071;-86
2021/05/03 02:10:37;;;;;;;10.40;6.57;;;5.50;99.90;;;;;;5090340;28;20054;-86
2021/05/03 02:13:04;;;;;;;13.18;6.78;;;5.50;99.90;;;;;;5091009;28;20058;-86
2021/05/03 02:15:31;;;;;;;13.02;6.45;;;5.60;99.90;;;;;;5090192;28;20072;-85
2021/05/03 02:17:57;;;;;;;10.05;6.28;;;5.60;99.90;;;;;;5089018;28;20040;-86
2021/05/03 02:20:24;;;;;;;12.82;7.18;;;5.60;99.90;;;;;;5091135;28;20463;-86
2021/05/03 02:22:51;;;;;;;17.98;7.70;;;5.60;99.90;;;;;;5070978;28;20028;-86
2021/05/03 02:25:17;;;;;;;12.07;7.75;;;5.70;99.90;;;;;;5090690;28;20064;-86
2021/05/03 02:27:47;;;;;;;14.60;7.97;;;5.70;99.90;;;;;;5089660;28;20054;-86
2021/05/03 02:30:13;;;;;;;13.15;7.90;;;5.70;99.90;;;;;;5088382;28;20562;-86
2021/05/03 02:32:41;;;;;;;13.88;8.23;;;5.80;99.90;;;;;;5092239;28;20071;-86
2021/05/03 02:35:10;;;;;;;13.75;8.60;;;5.80;99.90;;;;;;5089177;28;20055;-85
2021/05/03 02:37:37;;;;;;;12.75;8.55;;;5.80;99.90;;;;;;5089674;28;20097;-86
2021/05/03 02:40:05;;;;;;;14.80;9.18;;;5.80;99.90;;;;;;5105171;28;20048;-86
2021/05/03 02:42:31;;;;;;;16.45;9.88;;;5.80;99.90;;;;;;5085233;28;20050;-86
2021/05/03 02:44:57;;;;;;;12.85;7.85;;;5.80;99.90;;;;;;5088394;28;20107;-86
2021/05/03 02:47:24;;;;;;;13.80;8.15;;;5.80;99.90;;;;;;5075017;28;20446;-86
2021/05/03 02:49:50;;;;;;;13.95;8.15;;;5.80;99.90;;;;;;5089606;28;20074;-86
2021/05/03 02:52:17;;;;;;;12.73;8.45;;;5.80;99.90;;;;;;5087073;28;20153;-86
2021/05/03 02:54:43;;;;;;;11.73;7.93;;;5.80;99.90;;;;;;5086475;28;20055;-86
2021/05/03 02:57:09;;;;;;;14.48;8.73;;;5.70;99.90;;;;;;5079469;28;20050;-86
2021/05/03 02:59:36;;;;;;;16.42;8.98;;;5.80;99.90;;;;;;5091057;28;20062;-86
2021/05/03 03:02:02;;;;;;;15.40;8.77;;;5.70;99.90;;;;;;5092498;28;20067;-86
2021/05/03 03:04:29;;;;;;;14.48;8.98;;;5.70;99.90;;;;;;5093338;28;20040;-86
2021/05/03 03:06:55;;;;;;;16.00;9.45;;;5.70;99.90;;;;;;5090781;28;20139;-86
2021/05/03 03:09:21;;;;;;;18.00;9.48;;;5.70;99.90;;;;;;5070279;28;20658;-86
2021/05/03 03:11:48;;;;;;;17.45;9.18;;;5.70;99.90;;;;;;5073330;28;20076;-86
2021/05/03 03:14:15;;;;;;;14.35;9.13;;;5.70;99.90;;;;;;5071907;28;20052;-86
2021/05/03 03:16:42;;;;;;;15.20;9.23;;;5.80;99.90;;;;;;5072707;28;20067;-86
2021/05/03 03:19:09;;;;;;;14.52;8.95;;;5.70;99.90;;;;;;5069182;28;20127;-86
2021/05/03 03:21:35;;;;;;;20.75;9.25;;;5.70;99.90;;;;;;5072419;28;20049;-86
2021/05/03 03:24:01;;;;;;;12.15;9.00;;;5.80;99.90;;;;;;5080278;28;20044;-86
2021/05/03 03:26:28;;;;;;;13.98;9.05;;;5.80;99.90;;;;;;5091734;28;20119;-86
2021/05/03 03:28:55;;;;;;;17.83;7.90;;;5.80;99.90;;;;;;5088994;28;20103;-86
2021/05/03 03:31:21;;;;;;;13.70;9.07;;;5.80;99.90;;;;;;5093524;28;20052;-86
2021/05/03 03:33:47;;;;;;;13.57;8.48;;;5.80;99.90;;;;;;5105949;28;20116;-86
2021/05/03 03:36:13;;;;;;;14.32;8.23;;;5.80;99.90;;;;;;5091276;28;20519;-86
2021/05/03 03:38:40;;;;;;;14.02;8.15;;;5.80;99.90;;;;;;5091808;28;20560;-86
2021/05/03 03:41:06;;;;;;;15.05;8.90;;;5.90;99.90;;;;;;5107018;28;20056;-86
2021/05/03 03:43:33;;;;;;;11.13;7.68;;;5.90;99.90;;;;;;5090105;28;20091;-86
2021/05/03 03:46:00;;;;;;;13.73;8.52;;;5.80;99.90;;;;;;5089099;28;20129;-86
2021/05/03 03:48:26;;;;;;;12.43;8.25;;;5.90;99.90;;;;;;5089900;28;20139;-85
2021/05/03 03:50:52;;;;;;;17.85;9.38;;;5.90;99.90;;;;;;5089941;28;20052;-86
2021/05/03 03:53:19;;;;;;;19.95;8.32;;;5.90;99.90;;;;;;5090998;28;20073;-86
2021/05/03 03:55:45;;;;;;;14.38;9.55;;;5.90;99.90;;;;;;5079448;28;20155;-85
2021/05/03 03:58:11;;;;;;;12.55;7.93;;;5.90;99.90;;;;;;5088034;28;20056;-86
2021/05/03 04:00:37;;;;;;;15.07;9.48;;;5.80;99.90;;;;;;5088402;28;20066;-86
2021/05/03 04:03:06;;;;;;;21.92;9.60;;;5.80;99.90;;;;;;5086456;28;20052;-86
2021/05/03 04:08:21;;;;;;;15.95;10.63;;;5.80;99.90;;;;;;5089130;28;20044;-86
2021/05/03 04:11:05;;;;;;;14.05;9.30;;;5.80;99.90;;;;;;5088473;28;20040;-86
2021/05/03 04:26:25;;;;;;;20.95;13.52;;;5.80;99.90;;;;;;5090960;28;20494;-85
2021/05/03 04:28:53;;;;;;;21.08;12.15;;;5.80;99.90;;;;;;5089248;28;20056;-86
2021/05/03 04:31:22;;;;;;;17.98;12.38;;;5.80;99.90;;;;;;5089904;28;20509;-85
2021/05/03 04:33:49;;;;;;;22.08;12.85;;;5.80;99.90;;;;;;5089012;28;20407;-87
2021/05/03 04:36:18;;;;;;;19.20;12.73;;;5.80;99.90;;;;;;5089527;28;20060;-85
2021/05/03 04:38:45;;;;;;;19.00;12.02;;;5.90;99.90;;;;;;5090941;28;20076;-86
2021/05/03 04:41:11;;;;;;;21.77;12.68;;;5.90;99.90;;;;;;5089717;28;20081;-86
2021/05/03 04:43:38;;;;;;;20.73;13.68;;;5.90;99.90;;;;;;5081865;28;21029;-86
2021/05/03 04:46:04;;;;;;;21.25;14.02;;;5.80;99.90;;;;;;5091537;28;20832;-86
2021/05/03 04:48:31;;;;;;;19.55;13.50;;;5.90;99.90;;;;;;5088879;28;20079;-85
2021/05/03 04:50:57;;;;;;;19.25;11.68;;;5.90;99.90;;;;;;5085253;28;20096;-86
2021/05/03 04:53:24;;;;;;;21.35;14.10;;;5.80;99.90;;;;;;5091871;28;20104;-86
2021/05/03 04:55:50;;;;;;;23.73;14.65;;;5.90;99.90;;;;;;5086943;28;20055;-86
2021/05/03 04:58:17;;;;;;;24.02;14.45;;;5.90;99.90;;;;;;5079551;28;20491;-86
2021/05/03 05:00:43;;;;;;;25.20;15.35;;;5.90;99.90;;;;;;5088919;28;20027;-86
2021/05/03 05:03:09;;;;;;;20.58;14.50;;;5.90;99.90;;;;;;5088552;28;20063;-86
2021/05/03 05:05:36;;;;;;;22.13;14.07;;;5.90;99.90;;;;;;5090116;28;20071;-86
2021/05/03 05:08:02;;;;;;;24.88;15.00;;;6.00;99.90;;;;;;5079363;28;20143;-86
2021/05/03 05:10:29;;;;;;;23.75;14.05;;;6.00;99.90;;;;;;5083823;28;20054;-86
2021/05/03 05:12:55;;;;;;;22.98;15.68;;;6.10;99.90;;;;;;5091224;28;20546;-86
2021/05/03 05:15:21;;;;;;;23.70;15.60;;;6.10;99.90;;;;;;5087009;28;20058;-85
2021/05/03 05:17:48;;;;;;;24.15;14.93;;;6.10;99.90;;;;;;5086431;28;20052;-86
2021/05/03 05:20:16;;;;;;;29.00;15.68;;;6.10;99.90;;;;;;5103911;27;20475;-86
2021/05/03 05:22:43;;;;;;;25.92;15.90;;;6.20;99.90;;;;;;5081053;28;20406;-86
2021/05/03 05:25:10;;;;;;;24.77;15.63;;;6.20;99.90;;;;;;5067160;28;20140;-86
2021/05/03 05:27:37;;;;;;;26.65;15.73;;;6.30;99.90;;;;;;5073714;28;20533;-86
2021/05/03 05:30:05;;;;;;;23.17;16.25;;;6.30;99.90;;;;;;5107548;27;20439;-86
2021/05/03 05:32:31;;;;;;;28.77;17.52;;;6.40;99.90;;;;;;5089454;28;20134;-85
2021/05/03 05:34:58;;;;;;;24.13;16.52;;;6.50;99.90;;;;;;5088489;28;20093;-85
2021/05/03 05:37:26;;;;;;;25.75;16.42;;;6.50;99.90;;;;;;5080585;28;20070;-85
2021/05/03 05:39:52;;;;;;;30.00;17.55;;;6.60;99.90;;;;;;5076932;28;20144;-85
2021/05/03 05:42:19;;;;;;;28.38;16.75;;;6.60;99.90;;;;;;5088141;28;20058;-85
2021/05/03 05:44:45;;;;;;;28.77;17.45;;;6.60;99.90;;;;;;5089974;28;20052;-86
2021/05/03 05:47:12;;;;;;;25.05;15.95;;;6.70;99.90;;;;;;5088701;28;20477;-85
2021/05/03 05:49:39;;;;;;;29.15;16.70;;;6.70;99.90;;;;;;5090812;28;20052;-85
2021/05/03 05:52:06;;;;;;;25.38;16.50;;;6.80;99.90;;;;;;5088275;28;20064;-85
2021/05/03 05:54:33;;;;;;;28.95;17.45;;;6.80;99.90;;;;;;5089398;28;20056;-85
2021/05/03 05:56:59;;;;;;;25.13;16.02;;;6.90;99.90;;;;;;5105989;28;20043;-85
2021/05/03 05:59:26;;;;;;;24.98;16.52;;;7.00;99.90;;;;;;5088550;28;20131;-85
2021/05/03 06:01:52;;;;;;;27.42;15.70;;;7.10;99.90;;;;;;5088609;28;20111;-85
2021/05/03 06:04:19;;;;;;;36.20;17.10;;;7.20;99.90;;;;;;5072453;28;20048;-85
2021/05/03 06:06:45;;;;;;;25.17;17.13;;;7.20;99.90;;;;;;5089447;28;20048;-84
2021/05/03 06:09:11;;;;;;;29.95;18.25;;;7.20;99.90;;;;;;5095884;28;20048;-86
2021/05/03 06:11:38;;;;;;;30.02;17.45;;;7.20;99.90;;;;;;5089590;28;20139;-85
2021/05/03 06:14:04;;;;;;;25.98;17.02;;;7.20;99.90;;;;;;5089150;28;20127;-85
2021/05/03 06:16:31;;;;;;;24.60;15.90;;;7.30;99.90;;;;;;5088310;28;20339;-85
2021/05/03 06:19:00;;;;;;;24.85;16.90;;;7.30;99.90;;;;;;5087087;28;20040;-85
2021/05/03 06:21:27;;;;;;;26.30;16.02;;;7.40;99.90;;;;;;5085658;28;20585;-85
2021/05/03 06:23:54;;;;;;;29.67;17.50;;;7.50;99.90;;;;;;5085941;28;20079;-87
2021/05/03 06:26:20;;;;;;;23.73;16.25;;;7.60;99.90;;;;;;5086046;28;20131;-85
2021/05/03 06:28:48;;;;;;;24.52;16.20;;;7.60;99.90;;;;;;5080875;28;20047;-85
2021/05/03 06:31:14;;;;;;;22.95;16.00;;;7.70;99.90;;;;;;5084061;28;20052;-85
2021/05/03 06:33:41;;;;;;;27.13;17.23;;;7.70;99.90;;;;;;5091679;28;20121;-85
2021/05/03 06:36:07;;;;;;;27.67;16.40;;;7.70;99.90;;;;;;5093374;28;20564;-85
2021/05/03 06:38:34;;;;;;;28.15;16.90;;;7.80;99.90;;;;;;5085327;28;20111;-85
2021/05/03 06:41:00;;;;;;;30.35;16.92;;;7.80;99.90;;;;;;5093381;28;20047;-85
2021/05/03 06:43:26;;;;;;;27.00;15.90;;;7.80;99.90;;;;;;5092161;28;20064;-85
2021/05/03 06:45:53;;;;;;;28.98;17.15;;;7.90;99.90;;;;;;5089714;28;20108;-84
2021/05/03 06:48:19;;;;;;;28.48;15.98;;;7.90;99.90;;;;;;5083925;28;20546;-85
2021/05/03 06:50:46;;;;;;;27.38;16.88;;;8.00;99.90;;;;;;5089009;28;20103;-84
2021/05/03 06:53:13;;;;;;;25.20;15.80;;;8.00;99.90;;;;;;5080600;28;20116;-84
2021/05/03 06:55:40;;;;;;;22.85;16.23;;;8.00;99.90;;;;;;5089116;28;20051;-83
2021/05/03 06:58:06;;;;;;;24.42;16.30;;;8.10;99.90;;;;;;5091214;28;20044;-84
2021/05/03 07:00:39;;;;;;;28.90;17.13;;;8.10;99.90;;;;;;5090894;28;20059;-84
2021/05/03 07:03:10;;;;;;;24.73;16.05;;;8.10;99.90;;;;;;5086884;28;20044;-84
2021/05/03 07:05:38;;;;;;;26.35;16.10;;;8.10;99.90;;;;;;5075925;28;20573;-83
2021/05/03 07:08:06;;;;;;;23.58;16.33;;;8.00;99.90;;;;;;5085287;28;20109;-84
2021/05/03 07:10:33;;;;;;;26.10;16.75;;;8.00;99.90;;;;;;5078515;28;20119;-83
2021/05/03 07:13:01;;;;;;;27.55;16.23;;;7.90;99.90;;;;;;5082600;28;20070;-84
2021/05/03 07:15:28;;;;;;;26.73;17.27;;;7.90;99.90;;;;;;5089192;28;20550;-83
2021/05/03 07:17:54;;;;;;;29.27;17.42;;;8.00;99.90;;;;;;5089703;28;20123;-84
2021/05/03 07:20:22;;;;;;;26.73;17.15;;;8.10;99.90;;;;;;5090385;28;20058;-84
2021/05/03 07:22:48;;;;;;;24.98;17.00;;;8.20;99.90;;;;;;5092659;28;20503;-83
2021/05/03 07:25:15;;;;;;;27.42;17.15;;;8.30;99.90;;;;;;5090399;28;20060;-83
2021/05/03 07:27:41;;;;;;;25.50;16.85;;;8.40;99.90;;;;;;5089021;28;20484;-84
2021/05/03 07:30:11;;;;;;;28.88;17.67;;;8.60;99.90;;;;;;5089473;28;20050;-86
2021/05/03 07:32:38;;;;;;;26.58;18.23;;;8.80;99.90;;;;;;5083342;28;20048;-84
2021/05/03 07:35:08;;;;;;;35.08;17.98;;;9.00;99.90;;;;;;5076539;28;20150;-84
2021/05/03 07:37:35;;;;;;;24.27;16.02;;;9.20;99.90;;;;;;5085737;28;20086;-84
2021/05/03 07:40:07;;;;;;;28.38;17.73;;;9.30;99.90;;;;;;5084111;28;24557;-84
2021/05/03 07:42:33;;;;;;;29.23;18.90;;;9.40;99.90;;;;;;5075582;28;20075;-85
2021/05/03 07:45:08;;;;;;;28.05;18.65;;;9.30;99.90;;;;;;5088131;28;20044;-85
2021/05/03 07:47:35;;;;;;;26.70;18.67;;;9.40;99.90;;;;;;5083681;28;20051;-84
2021/05/03 07:50:02;;;;;;;31.40;20.15;;;9.50;99.90;;;;;;5089779;28;20051;-84
2021/05/03 07:52:30;;;;;;;32.17;19.33;;;9.60;99.90;;;;;;5087158;28;20060;-84
2021/05/03 07:54:58;;;;;;;29.58;18.65;;;9.70;99.90;;;;;;5088399;28;20055;-85
2021/05/03 07:57:25;;;;;;;28.48;18.85;;;9.90;99.90;;;;;;5089807;28;20161;-86
2021/05/03 07:59:52;;;;;;;33.30;19.63;;;10.00;99.90;;;;;;5069413;28;20064;-86
2021/05/03 08:02:18;;;;;;;33.92;20.77;;;10.10;99.90;;;;;;5093871;28;20521;-86
2021/05/03 08:04:48;;;;;;;30.85;19.77;;;10.20;99.90;;;;;;5094445;28;20036;-86
2021/05/03 08:07:15;;;;;;;36.80;22.98;;;10.30;99.90;;;;;;5091439;28;20103;-85
2021/05/03 08:09:41;;;;;;;31.48;21.38;;;10.40;99.90;;;;;;5075845;28;20047;-86
2021/05/03 08:12:12;;;;;;;36.25;21.63;;;10.40;99.90;;;;;;5092578;28;20047;-86
2021/05/03 08:14:41;;;;;;;31.25;20.23;;;10.50;99.90;;;;;;5094251;28;20052;-87
2021/05/03 08:17:13;;;;;;;32.35;22.17;;;10.60;99.90;;;;;;5088000;28;20510;-85
2021/05/03 08:19:42;;;;;;;38.45;23.40;;;10.70;99.90;;;;;;5101329;28;20052;-86
2021/05/03 08:22:10;;;;;;;36.10;22.60;;;10.80;99.90;;;;;;5109424;28;20574;-86
2021/05/03 08:24:39;;;;;;;35.90;24.23;;;10.90;99.90;;;;;;5087461;28;20062;-86
2021/05/03 08:27:06;;;;;;;41.53;25.27;;;10.90;99.90;;;;;;5076532;28;20048;-85
2021/05/03 08:29:34;;;;;;;38.00;23.45;;;10.90;99.90;;;;;;5089460;28;20052;-86
2021/05/03 08:32:02;;;;;;;41.17;25.17;;;11.10;99.90;;;;;;5076561;28;20082;-86
2021/05/03 08:34:29;;;;;;;37.83;24.15;;;11.30;99.90;;;;;;5066108;28;20054;-86
2021/05/03 08:36:56;;;;;;;39.67;23.90;;;11.70;99.90;;;;;;5062820;28;20044;-84
2021/05/03 08:39:27;;;;;;;37.33;25.65;;;12.00;99.90;;;;;;5064805;27;20181;-86
2021/05/03 08:41:59;;;;;;;38.50;23.70;;;12.20;99.90;;;;;;5079259;28;20972;-85
2021/05/03 08:44:27;;;;;;;38.60;24.92;;;12.10;99.90;;;;;;5088994;28;20146;-86
2021/05/03 08:46:55;;;;;;;38.78;25.08;;;12.00;99.90;;;;;;5087263;28;20064;-85
2021/05/03 08:49:50;;;;;;;38.47;26.75;;;12.10;99.90;;;;;;5081739;28;20154;-86
2021/05/03 08:52:21;;;;;;;;;;;12.10;99.90;;;;;;5090425;27;20104;-84
2021/05/03 08:54:49;;;;;;;42.47;27.05;;;12.20;99.90;;;;;;5092726;27;20732;-86
2021/05/03 08:57:16;;;;;;;39.40;26.98;;;12.20;99.90;;;;;;5068594;28;20103;-83
2021/05/03 08:59:44;;;;;;;45.35;27.92;;;12.20;99.90;;;;;;5091250;28;20072;-83
2021/05/03 09:02:13;;;;;;;42.67;27.73;;;12.30;99.90;;;;;;5097009;28;20505;-84
2021/05/03 09:04:41;;;;;;;42.30;26.42;;;12.20;99.90;;;;;;5094527;28;20087;-83
2021/05/03 09:07:16;;;;;;;38.25;25.13;;;12.30;99.90;;;;;;5093666;28;20048;-84
2021/05/03 09:09:47;;;;;;;42.05;27.95;;;12.30;99.90;;;;;;5082072;28;20112;-82
2021/05/03 09:12:22;;;;;;;42.95;28.20;;;12.30;99.90;;;;;;5095398;28;20040;-83
2021/05/03 09:15:02;;;;;;;43.33;28.70;;;12.60;99.90;;;;;;5091541;28;20483;-84
2021/05/03 09:17:44;;;;;;;44.28;27.20;;;12.90;99.90;;;;;;5095151;28;20047;-84
2021/05/03 09:20:22;;;;;;;42.85;27.35;;;13.10;99.90;;;;;;5078637;28;20043;-81
2021/05/03 09:25:38;;;;;;;40.85;27.88;;;13.30;99.90;;;;;;5089736;27;20076;-81
2021/05/03 09:28:13;;;;;;;43.10;28.10;;;13.40;99.90;;;;;;5077721;28;20083;-82
2021/05/03 09:30:47;;;;;;;36.63;26.02;;;13.40;99.90;;;;;;5083026;28;20054;-82
2021/05/03 09:33:23;;;;;;;38.53;27.58;;;13.50;99.90;;;;;;5090617;27;20044;-81
2021/05/03 09:35:57;;;;;;;38.40;27.63;;;13.60;99.90;;;;;;5077414;28;20040;-82
2021/05/03 09:38:38;;;;;;;42.30;27.42;;;13.70;99.90;;;;;;5064968;28;20045;-81
2021/05/03 09:41:26;;;;;;;43.10;27.88;;;13.90;99.90;;;;;;5064773;28;20127;-82
2021/05/03 09:43:54;;;;;;;41.50;29.58;;;13.90;99.90;;;;;;5065928;28;20048;-81
2021/05/03 09:46:48;;;;;;;44.33;29.27;;;13.90;99.90;;;;;;5058665;28;20024;-81
2021/05/03 09:49:17;;;;;;;42.08;28.67;;;13.90;99.90;;;;;;5056461;28;20048;-80
2021/05/03 09:51:51;;;;;;;40.58;28.38;;;13.90;99.90;;;;;;5072196;28;20067;-82
2021/05/03 09:54:28;;;;;;;;;;;13.90;99.90;;;;;;5068971;28;20456;-82
2021/05/03 09:56:59;;;;;;;33.08;25.35;;;13.90;99.90;;;;;;5077481;28;19966;-81
2021/05/03 09:59:37;;;;;;;36.63;24.88;;;14.10;99.90;;;;;;5088798;28;20058;-81
2021/05/03 10:02:10;;;;;;;35.58;24.98;;;14.20;99.90;;;;;;5085942;28;20048;-81
2021/05/03 10:04:45;;;;;;;37.97;27.63;;;14.60;99.90;;;;;;5085416;28;20101;-82
2021/05/03 10:07:11;;;;;;;;;;;14.70;99.90;;;;;;5087829;28;20143;-82
2021/05/03 10:09:37;;;;;;;40.92;28.38;;;14.70;99.90;;;;;;5088141;28;19987;-83
2021/05/03 10:12:05;;;;;;;37.58;27.90;;;14.90;99.90;;;;;;5087906;28;20076;-83
2021/05/03 10:14:32;;;;;;;38.15;28.42;;;15.10;99.90;;;;;;5107087;27;20074;-82
2021/05/03 10:17:01;;;;;;;35.60;25.30;;;15.30;99.90;;;;;;5079557;27;20074;-82
2021/05/03 10:19:28;;;;;;;34.90;24.85;;;15.20;99.90;;;;;;5082283;28;20480;-82
2021/05/03 10:21:56;;;;;;;37.88;28.67;;;15.00;99.90;;;;;;5087951;27;20105;-81
2021/05/03 10:24:23;;;;;;;38.42;27.67;;;14.70;99.90;;;;;;5099187;28;20446;-85
2021/05/03 10:26:51;;;;;;;38.17;28.65;;;14.40;99.90;;;;;;5088529;28;20496;-82
2021/05/03 10:29:40;;;;;;;37.45;28.30;;;14.10;99.90;;;;;;5073644;28;20496;-84
2021/05/03 10:32:14;;;;;;;35.53;25.67;;;13.80;99.90;;;;;;5098616;28;20052;-84
2021/05/03 10:34:53;;;;;;;36.42;23.15;;;13.60;99.90;;;;;;5094407;28;20064;-83
2021/05/03 10:37:29;;;;;;;32.03;24.73;;;13.50;99.90;;;;;;5112127;27;20127;-84
2021/05/03 10:40:06;;;;;;;35.15;26.50;;;13.30;99.90;;;;;;5094090;28;20100;-82
2021/05/03 10:42:33;;;;;;;35.53;25.92;;;13.00;99.90;;;;;;5097063;28;20039;-83
2021/05/03 10:45:20;;;;;;;29.65;21.50;;;12.90;99.90;;;;;;5087327;28;20073;-82
2021/05/03 10:47:52;;;;;;;29.65;22.27;;;12.70;99.90;;;;;;5093934;28;20047;-84
2021/05/03 10:53:34;;;;;;;33.83;25.10;;;12.10;99.90;;;;;;5077766;28;20059;-84
2021/05/03 10:56:08;;;;;;;34.28;23.20;;;12.00;99.90;;;;;;5087754;28;20086;-84
2021/05/03 10:59:14;;;;;;;32.50;23.25;;;11.90;99.90;;;;;;5079983;28;20044;-83
2021/05/03 11:01:56;;;;;;;28.58;21.00;;;11.70;99.90;;;;;;5064723;28;20052;-83
2021/05/03 11:04:28;;;;;;;35.88;22.58;;;11.70;99.90;;;;;;5072283;28;20053;-83
2021/05/03 11:06:57;;;;;;;32.42;22.55;;;11.60;99.90;;;;;;5046549;28;20048;-84
2021/05/03 11:09:39;;;;;;;27.17;18.38;;;11.40;99.90;;;;;;5078008;28;20135;-83
2021/05/03 11:12:05;;;;;;;26.95;15.75;;;11.30;99.90;;;;;;5075865;28;20081;-82
2021/05/03 11:14:41;;;;;;;9.38;6.30;;;11.00;99.90;;;;;;5083337;28;20133;-82
2021/05/03 11:17:17;;;;;;;7.45;5.03;;;10.80;99.90;;;;;;5102461;27;20135;-81
2021/05/03 11:20:03;;;;;;;8.45;5.80;;;10.40;99.90;;;;;;5061688;28;20049;-82
2021/05/03 11:23:07;;;;;;;7.95;5.13;;;10.00;99.90;;;;;;5091315;28;20050;-81
2021/05/03 11:25:35;;;;;;;4.10;3.72;;;9.60;99.90;;;;;;5083041;28;20082;-81
2021/05/03 11:30:41;;;;;;;7.72;5.70;;;9.00;99.90;;;;;;5074603;28;20044;-83
2021/05/03 11:33:12;;;;;;;8.35;5.90;;;8.70;99.90;;;;;;5094474;27;20077;-83
2021/05/03 11:38:26;;;;;;;12.57;7.65;;;8.50;99.90;;;;;;5092244;28;20047;-82
2021/05/03 11:41:08;;;;;;;10.13;7.35;;;8.70;99.90;;;;;;5090783;28;20119;-82
2021/05/03 11:46:13;;;;;;;12.80;8.40;;;9.20;99.90;;;;;;5088113;27;20110;-82
2021/05/03 11:48:41;;;;;;;9.02;7.38;;;9.50;99.90;;;;;;5068921;28;20108;-82
2021/05/03 11:51:09;;;;;;;11.82;7.47;;;9.70;99.90;;;;;;5062978;28;20064;-82
2021/05/03 11:53:35;;;;;;;13.00;8.88;;;9.80;99.90;;;;;;5070112;28;20062;-82
2021/05/03 11:56:20;;;;;;;20.95;12.65;;;9.80;99.90;;;;;;5077307;28;20061;-82
2021/05/03 11:58:50;;;;;;;26.35;13.60;;;9.60;99.90;;;;;;5085431;28;20553;-82
2021/05/03 12:01:25;;;;;;;18.25;12.13;;;9.30;99.90;;;;;;5073936;28;20494;-82
2021/05/03 12:03:59;;;;;;;15.10;10.48;;;9.00;99.90;;;;;;5082266;28;20067;-82
2021/05/03 12:06:40;;;;;;;13.27;10.02;;;8.80;99.90;;;;;;5088078;28;20047;-83
2021/05/03 12:09:12;;;;;;;13.60;10.07;;;8.80;99.90;;;;;;5092880;28;20043;-83
2021/05/03 12:11:58;;;;;;;14.37;9.90;;;9.10;99.90;;;;;;5084852;27;20047;-83
2021/05/03 12:14:46;;;;;;;13.60;9.77;;;9.50;99.90;;;;;;5079644;28;20047;-82
2021/05/03 12:17:29;;;;;;;11.85;8.82;;;10.00;99.90;;;;;;5071691;28;20048;-83
2021/05/03 12:20:11;;;;;;;12.95;8.57;;;10.50;99.90;;;;;;5097181;28;20043;-83
2021/05/03 12:22:38;;;;;;;8.57;6.97;;;11.10;99.90;;;;;;5093218;28;20076;-83
2021/05/03 12:25:10;;;;;;;9.43;6.03;;;11.60;99.90;;;;;;5088477;28;20040;-84
2021/05/03 12:27:38;;;;;;;8.80;6.50;;;12.00;99.90;;;;;;5092915;27;20056;-84
2021/05/03 12:30:08;;;;;;;7.72;6.30;;;12.50;99.90;;;;;;5087852;28;20055;-81
2021/05/03 12:32:37;;;;;;;9.70;8.70;;;13.00;99.90;;;;;;5090513;28;20056;-82
2021/05/03 12:35:10;;;;;;;10.70;9.60;;;13.30;99.90;;;;;;5079389;28;20067;-81
2021/05/03 12:37:37;;;;;;;12.52;9.98;;;13.40;99.90;;;;;;5083457;28;20078;-82
2021/05/03 12:40:13;;;;;;;13.13;10.90;;;13.60;99.90;;;;;;5094770;28;20105;-82
2021/05/03 12:42:53;;;;;;;14.35;10.48;;;13.80;99.90;;;;;;5093321;28;20071;-82
2021/05/03 12:45:35;;;;;;;16.08;12.13;;;14.00;99.90;;;;;;5091324;27;20116;-82
2021/05/03 12:54:12;;;;;;;14.43;10.48;;;14.10;99.90;;;;;;5068727;28;20068;-82
2021/05/03 12:57:25;;;;;;;13.95;11.00;;;13.80;99.90;;;;;;5056609;28;20147;-82
2021/05/03 12:59:55;;;;;;;9.93;8.57;;;13.50;99.90;;;;;;5067144;28;20140;-82
2021/05/03 13:02:33;;;;;;;14.57;9.30;;;13.60;99.90;;;;;;5041250;28;20052;-82
2021/05/03 13:05:17;;;;;;;13.75;10.80;;;13.80;99.90;;;;;;5083939;28;20054;-82
2021/05/03 13:29:59;;;;;;;16.77;11.73;;;15.50;99.90;;;;;;5087632;28;20082;-83
2021/05/03 13:32:28;;;;;;;14.45;11.55;;;16.10;99.90;;;;;;5075240;28;20451;-82
2021/05/03 13:35:01;;;;;;;13.10;11.55;;;16.70;99.80;;;;;;5085927;28;20052;-83
2021/05/03 13:37:28;;;;;;;15.20;9.80;;;17.50;97.00;;;;;;5099732;27;20059;-83
2021/05/03 13:40:12;;;;;;;16.85;10.40;;;18.00;91.30;;;;;;5063121;28;20036;-83
2021/05/03 13:42:43;;;;;;;13.80;10.45;;;18.30;90.20;;;;;;5050007;28;20113;-82
2021/05/03 13:45:10;;;;;;;11.48;10.27;;;18.50;86.40;;;;;;5079899;28;20074;-83
2021/05/03 13:47:37;;;;;;;13.50;11.57;;;18.20;79.70;;;;;;5085770;28;20056;-82
2021/05/03 13:50:05;;;;;;;14.55;10.75;;;17.70;84.50;;;;;;5079396;28;20513;-82
2021/05/03 13:52:34;;;;;;;12.48;11.02;;;17.10;82.30;;;;;;5089000;28;20181;-82